sensor_id;sensor_type;location;lat;lon;timestamp;temperature;humidity
22787;DHT22;63134;52.020;4.714;2023-09-19T00:00:23;15.30;96.10
22787;DHT22;63134;52.020;4.714;2023-09-19T00:03:13;15.40;95.90
22787;DHT22;63134;52.020;4.714;2023-09-19T00:05:59;15.50;95.90
22787;DHT22;63134;52.020;4.714;2023-09-19T00:08:45;15.60;95.80
22787;DHT22;63134;52.020;4.714;2023-09-19T00:11:30;15.70;95.50
22787;DHT22;63134;52.020;4.714;2023-09-19T00:14:16;15.70;95.10
22787;DHT22;63134;52.020;4.714;2023-09-19T00:17:03;15.80;94.80
22787;DHT22;63134;52.020;4.714;2023-09-19T00:19:53;15.80;94.50
22787;DHT22;63134;52.020;4.714;2023-09-19T00:22:40;15.80;94.10
22787;DHT22;63134;52.020;4.714;2023-09-19T00:25:26;15.90;93.60
22787;DHT22;63134;52.020;4.714;2023-09-19T00:28:13;15.80;93.20
22787;DHT22;63134;52.020;4.714;2023-09-19T00:31:02;15.80;92.70
22787;DHT22;63134;52.020;4.714;2023-09-19T00:33:49;15.80;92.70
22787;DHT22;63134;52.020;4.714;2023-09-19T00:36:34;15.80;92.40
22787;DHT22;63134;52.020;4.714;2023-09-19T00:39:20;15.70;92.00
22787;DHT22;63134;52.020;4.714;2023-09-19T00:42:07;15.70;92.20
22787;DHT22;63134;52.020;4.714;2023-09-19T00:44:53;15.80;92.20
22787;DHT22;63134;52.020;4.714;2023-09-19T00:47:48;15.80;91.80
22787;DHT22;63134;52.020;4.714;2023-09-19T00:50:35;15.80;91.40
22787;DHT22;63134;52.020;4.714;2023-09-19T00:53:23;15.80;90.90
22787;DHT22;63134;52.020;4.714;2023-09-19T00:56:15;15.70;90.60
22787;DHT22;63134;52.020;4.714;2023-09-19T00:59:06;15.60;90.70
22787;DHT22;63134;52.020;4.714;2023-09-19T01:01:53;15.60;90.70
22787;DHT22;63134;52.020;4.714;2023-09-19T01:04:41;15.60;90.40
22787;DHT22;63134;52.020;4.714;2023-09-19T01:07:30;15.50;90.40
22787;DHT22;63134;52.020;4.714;2023-09-19T01:10:20;15.40;90.10
22787;DHT22;63134;52.020;4.714;2023-09-19T01:22:18;15.40;89.70
22787;DHT22;63134;52.020;4.714;2023-09-19T01:28:34;15.50;89.30
22787;DHT22;63134;52.020;4.714;2023-09-19T01:31:28;15.60;87.60
22787;DHT22;63134;52.020;4.714;2023-09-19T01:34:17;15.60;87.80
22787;DHT22;63134;52.020;4.714;2023-09-19T01:37:04;15.70;87.80
22787;DHT22;63134;52.020;4.714;2023-09-19T01:39:53;15.80;86.60
22787;DHT22;63134;52.020;4.714;2023-09-19T01:48:54;16.30;84.10
22787;DHT22;63134;52.020;4.714;2023-09-19T01:54:51;15.90;85.00
22787;DHT22;63134;52.020;4.714;2023-09-19T01:58:58;15.60;86.50
22787;DHT22;63134;52.020;4.714;2023-09-19T02:01:17;15.50;87.70
22787;DHT22;63134;52.020;4.714;2023-09-19T02:04:07;15.40;88.70
22787;DHT22;63134;52.020;4.714;2023-09-19T02:06:53;15.40;89.00
22787;DHT22;63134;52.020;4.714;2023-09-19T02:09:39;15.40;89.00
22787;DHT22;63134;52.020;4.714;2023-09-19T02:12:27;15.40;88.70
22787;DHT22;63134;52.020;4.714;2023-09-19T02:15:15;15.40;88.60
22787;DHT22;63134;52.020;4.714;2023-09-19T02:18:01;15.40;88.40
22787;DHT22;63134;52.020;4.714;2023-09-19T02:20:48;15.40;88.50
22787;DHT22;63134;52.020;4.714;2023-09-19T02:23:33;15.40;88.30
22787;DHT22;63134;52.020;4.714;2023-09-19T02:26:23;15.50;88.00
22787;DHT22;63134;52.020;4.714;2023-09-19T02:29:09;15.50;87.60
22787;DHT22;63134;52.020;4.714;2023-09-19T02:32:01;15.50;86.80
22787;DHT22;63134;52.020;4.714;2023-09-19T02:34:47;15.60;86.70
22787;DHT22;63134;52.020;4.714;2023-09-19T02:37:32;15.60;86.60
22787;DHT22;63134;52.020;4.714;2023-09-19T02:40:18;15.60;86.30
22787;DHT22;63134;52.020;4.714;2023-09-19T02:43:05;15.60;86.40
22787;DHT22;63134;52.020;4.714;2023-09-19T02:45:51;15.50;86.60
22787;DHT22;63134;52.020;4.714;2023-09-19T02:48:38;15.50;86.40
22787;DHT22;63134;52.020;4.714;2023-09-19T02:51:24;15.60;86.50
22787;DHT22;63134;52.020;4.714;2023-09-19T02:54:10;15.60;85.70
22787;DHT22;63134;52.020;4.714;2023-09-19T02:56:56;15.70;86.00
22787;DHT22;63134;52.020;4.714;2023-09-19T02:59:44;15.80;86.00
22787;DHT22;63134;52.020;4.714;2023-09-19T03:02:30;15.70;85.70
22787;DHT22;63134;52.020;4.714;2023-09-19T03:05:21;15.70;86.00
22787;DHT22;63134;52.020;4.714;2023-09-19T03:08:10;15.70;86.00
22787;DHT22;63134;52.020;4.714;2023-09-19T03:10:55;15.80;86.70
22787;DHT22;63134;52.020;4.714;2023-09-19T03:13:41;15.80;86.70
22787;DHT22;63134;52.020;4.714;2023-09-19T03:16:29;15.90;87.40
22787;DHT22;63134;52.020;4.714;2023-09-19T03:19:18;15.90;86.80
22787;DHT22;63134;52.020;4.714;2023-09-19T03:22:07;15.90;86.90
22787;DHT22;63134;52.020;4.714;2023-09-19T03:24:54;15.90;87.30
22787;DHT22;63134;52.020;4.714;2023-09-19T03:27:40;15.90;87.50
22787;DHT22;63134;52.020;4.714;2023-09-19T03:30:26;15.90;87.60
22787;DHT22;63134;52.020;4.714;2023-09-19T03:33:12;15.90;87.90
22787;DHT22;63134;52.020;4.714;2023-09-19T03:35:59;15.80;88.20
22787;DHT22;63134;52.020;4.714;2023-09-19T03:38:46;15.80;88.40
22787;DHT22;63134;52.020;4.714;2023-09-19T03:41:33;15.80;88.40
22787;DHT22;63134;52.020;4.714;2023-09-19T03:44:22;15.80;87.80
22787;DHT22;63134;52.020;4.714;2023-09-19T03:47:10;15.80;88.20
22787;DHT22;63134;52.020;4.714;2023-09-19T03:49:55;15.70;88.40
22787;DHT22;63134;52.020;4.714;2023-09-19T03:52:41;15.70;88.00
22787;DHT22;63134;52.020;4.714;2023-09-19T03:55:29;15.60;87.60
22787;DHT22;63134;52.020;4.714;2023-09-19T03:58:16;15.60;88.00
22787;DHT22;63134;52.020;4.714;2023-09-19T04:01:02;15.60;88.00
22787;DHT22;63134;52.020;4.714;2023-09-19T04:03:48;15.50;88.20
22787;DHT22;63134;52.020;4.714;2023-09-19T04:06:36;15.60;88.50
22787;DHT22;63134;52.020;4.714;2023-09-19T04:09:22;15.50;88.50
22787;DHT22;63134;52.020;4.714;2023-09-19T04:12:09;15.50;88.80
22787;DHT22;63134;52.020;4.714;2023-09-19T04:14:55;15.40;89.00
22787;DHT22;63134;52.020;4.714;2023-09-19T04:17:40;15.40;89.40
22787;DHT22;63134;52.020;4.714;2023-09-19T04:20:26;15.40;89.90
22787;DHT22;63134;52.020;4.714;2023-09-19T04:23:13;15.40;90.00
22787;DHT22;63134;52.020;4.714;2023-09-19T04:25:59;15.40;90.20
22787;DHT22;63134;52.020;4.714;2023-09-19T04:28:45;15.40;90.20
22787;DHT22;63134;52.020;4.714;2023-09-19T04:31:31;15.40;90.40
22787;DHT22;63134;52.020;4.714;2023-09-19T04:34:17;15.40;90.50
22787;DHT22;63134;52.020;4.714;2023-09-19T04:37:03;15.30;90.80
22787;DHT22;63134;52.020;4.714;2023-09-19T04:39:49;15.30;91.10
22787;DHT22;63134;52.020;4.714;2023-09-19T04:42:36;15.30;91.30
22787;DHT22;63134;52.020;4.714;2023-09-19T04:45:26;15.30;91.50
22787;DHT22;63134;52.020;4.714;2023-09-19T04:48:11;15.40;91.50
22787;DHT22;63134;52.020;4.714;2023-09-19T04:50:58;15.40;91.60
22787;DHT22;63134;52.020;4.714;2023-09-19T04:53:45;15.40;91.70
22787;DHT22;63134;52.020;4.714;2023-09-19T04:56:30;15.40;91.80
22787;DHT22;63134;52.020;4.714;2023-09-19T04:59:17;15.40;91.70
22787;DHT22;63134;52.020;4.714;2023-09-19T05:02:03;15.50;91.90
22787;DHT22;63134;52.020;4.714;2023-09-19T05:04:49;15.50;91.90
22787;DHT22;63134;52.020;4.714;2023-09-19T05:07:35;15.50;91.70
22787;DHT22;63134;52.020;4.714;2023-09-19T05:10:21;15.50;92.20
22787;DHT22;63134;52.020;4.714;2023-09-19T05:13:07;15.50;91.90
22787;DHT22;63134;52.020;4.714;2023-09-19T05:15:53;15.50;91.70
22787;DHT22;63134;52.020;4.714;2023-09-19T05:18:38;15.70;91.60
22787;DHT22;63134;52.020;4.714;2023-09-19T05:21:24;15.70;91.50
22787;DHT22;63134;52.020;4.714;2023-09-19T05:24:09;15.70;90.80
22787;DHT22;63134;52.020;4.714;2023-09-19T05:26:56;15.80;90.80
22787;DHT22;63134;52.020;4.714;2023-09-19T05:29:44;15.80;90.50
22787;DHT22;63134;52.020;4.714;2023-09-19T05:32:30;15.80;90.60
22787;DHT22;63134;52.020;4.714;2023-09-19T05:35:15;15.80;90.60
22787;DHT22;63134;52.020;4.714;2023-09-19T05:38:01;15.80;90.50
22787;DHT22;63134;52.020;4.714;2023-09-19T05:40:47;15.70;90.50
22787;DHT22;63134;52.020;4.714;2023-09-19T05:43:32;15.70;90.60
22787;DHT22;63134;52.020;4.714;2023-09-19T05:46:19;15.70;90.90
22787;DHT22;63134;52.020;4.714;2023-09-19T05:49:05;15.70;91.00
22787;DHT22;63134;52.020;4.714;2023-09-19T05:51:50;15.70;91.20
22787;DHT22;63134;52.020;4.714;2023-09-19T05:54:39;15.70;91.30
22787;DHT22;63134;52.020;4.714;2023-09-19T05:57:24;15.70;91.50
22787;DHT22;63134;52.020;4.714;2023-09-19T06:00:10;15.70;91.70
22787;DHT22;63134;52.020;4.714;2023-09-19T06:02:58;15.80;91.80
22787;DHT22;63134;52.020;4.714;2023-09-19T06:05:43;15.90;91.50
22787;DHT22;63134;52.020;4.714;2023-09-19T06:08:32;15.90;91.50
22787;DHT22;63134;52.020;4.714;2023-09-19T06:11:18;15.90;91.60
22787;DHT22;63134;52.020;4.714;2023-09-19T06:14:05;16.00;91.60
22787;DHT22;63134;52.020;4.714;2023-09-19T06:16:51;16.10;91.30
22787;DHT22;63134;52.020;4.714;2023-09-19T06:19:40;16.10;91.20
22787;DHT22;63134;52.020;4.714;2023-09-19T06:22:26;16.20;91.20
22787;DHT22;63134;52.020;4.714;2023-09-19T06:25:14;16.20;91.30
22787;DHT22;63134;52.020;4.714;2023-09-19T06:28:06;16.30;91.40
22787;DHT22;63134;52.020;4.714;2023-09-19T06:30:57;16.30;91.30
22787;DHT22;63134;52.020;4.714;2023-09-19T06:33:42;16.30;91.10
22787;DHT22;63134;52.020;4.714;2023-09-19T06:36:28;16.30;91.20
22787;DHT22;63134;52.020;4.714;2023-09-19T06:39:14;16.30;91.20
22787;DHT22;63134;52.020;4.714;2023-09-19T06:42:01;16.30;91.30
22787;DHT22;63134;52.020;4.714;2023-09-19T06:44:47;16.40;91.10
22787;DHT22;63134;52.020;4.714;2023-09-19T06:47:33;16.40;90.80
22787;DHT22;63134;52.020;4.714;2023-09-19T06:50:19;16.40;90.50
22787;DHT22;63134;52.020;4.714;2023-09-19T06:53:06;16.50;90.40
22787;DHT22;63134;52.020;4.714;2023-09-19T06:55:54;16.60;90.50
22787;DHT22;63134;52.020;4.714;2023-09-19T06:58:42;16.60;89.50
22787;DHT22;63134;52.020;4.714;2023-09-19T07:01:29;16.70;89.10
22787;DHT22;63134;52.020;4.714;2023-09-19T07:04:17;16.80;88.90
22787;DHT22;63134;52.020;4.714;2023-09-19T07:07:05;16.80;88.20
22787;DHT22;63134;52.020;4.714;2023-09-19T07:09:50;16.90;88.30
22787;DHT22;63134;52.020;4.714;2023-09-19T07:12:36;17.00;87.50
22787;DHT22;63134;52.020;4.714;2023-09-19T07:15:22;17.00;87.30
22787;DHT22;63134;52.020;4.714;2023-09-19T07:18:08;17.10;87.50
22787;DHT22;63134;52.020;4.714;2023-09-19T07:20:58;17.20;87.50
22787;DHT22;63134;52.020;4.714;2023-09-19T07:23:53;17.10;87.00
22787;DHT22;63134;52.020;4.714;2023-09-19T07:26:42;17.20;87.00
22787;DHT22;63134;52.020;4.714;2023-09-19T07:29:30;17.20;87.40
22787;DHT22;63134;52.020;4.714;2023-09-19T07:32:17;17.30;87.00
22787;DHT22;63134;52.020;4.714;2023-09-19T07:35:03;17.30;87.00
22787;DHT22;63134;52.020;4.714;2023-09-19T07:37:57;17.40;86.80
22787;DHT22;63134;52.020;4.714;2023-09-19T07:40:43;17.50;86.10
22787;DHT22;63134;52.020;4.714;2023-09-19T07:43:29;17.50;85.80
22787;DHT22;63134;52.020;4.714;2023-09-19T07:46:15;17.50;85.70
22787;DHT22;63134;52.020;4.714;2023-09-19T07:49:01;17.60;85.70
22787;DHT22;63134;52.020;4.714;2023-09-19T07:51:48;17.60;85.60
22787;DHT22;63134;52.020;4.714;2023-09-19T07:54:38;17.70;85.70
22787;DHT22;63134;52.020;4.714;2023-09-19T07:57:23;17.80;85.50
22787;DHT22;63134;52.020;4.714;2023-09-19T08:00:10;17.80;84.00
22787;DHT22;63134;52.020;4.714;2023-09-19T08:02:56;17.90;84.60
22787;DHT22;63134;52.020;4.714;2023-09-19T08:05:48;17.90;83.70
22787;DHT22;63134;52.020;4.714;2023-09-19T08:08:35;18.00;83.10
22787;DHT22;63134;52.020;4.714;2023-09-19T08:11:22;18.10;83.00
22787;DHT22;63134;52.020;4.714;2023-09-19T08:14:09;18.20;82.50
22787;DHT22;63134;52.020;4.714;2023-09-19T08:16:59;18.30;83.00
22787;DHT22;63134;52.020;4.714;2023-09-19T08:19:46;18.40;81.30
22787;DHT22;63134;52.020;4.714;2023-09-19T08:22:32;18.50;80.70
22787;DHT22;63134;52.020;4.714;2023-09-19T08:25:18;18.60;81.10
22787;DHT22;63134;52.020;4.714;2023-09-19T08:28:04;18.80;79.70
22787;DHT22;63134;52.020;4.714;2023-09-19T08:30:54;19.00;80.00
22787;DHT22;63134;52.020;4.714;2023-09-19T08:33:40;19.00;79.90
22787;DHT22;63134;52.020;4.714;2023-09-19T08:36:26;19.00;79.40
22787;DHT22;63134;52.020;4.714;2023-09-19T08:39:15;19.10;79.50
22787;DHT22;63134;52.020;4.714;2023-09-19T08:42:04;19.20;77.90
22787;DHT22;63134;52.020;4.714;2023-09-19T08:44:50;19.20;76.70
22787;DHT22;63134;52.020;4.714;2023-09-19T08:47:50;19.20;77.50
22787;DHT22;63134;52.020;4.714;2023-09-19T08:51:07;19.40;77.00
22787;DHT22;63134;52.020;4.714;2023-09-19T08:54:03;19.30;75.60
22787;DHT22;63134;52.020;4.714;2023-09-19T08:56:54;19.30;75.80
22787;DHT22;63134;52.020;4.714;2023-09-19T08:59:39;19.30;75.50
22787;DHT22;63134;52.020;4.714;2023-09-19T09:02:29;19.30;75.50
22787;DHT22;63134;52.020;4.714;2023-09-19T09:05:14;19.60;75.70
22787;DHT22;63134;52.020;4.714;2023-09-19T09:08:08;19.70;75.00
22787;DHT22;63134;52.020;4.714;2023-09-19T09:10:54;19.80;74.80
22787;DHT22;63134;52.020;4.714;2023-09-19T09:13:40;19.70;75.80
22787;DHT22;63134;52.020;4.714;2023-09-19T09:16:27;19.80;75.60
22787;DHT22;63134;52.020;4.714;2023-09-19T09:19:15;19.80;74.80
22787;DHT22;63134;52.020;4.714;2023-09-19T09:22:11;19.90;75.20
22787;DHT22;63134;52.020;4.714;2023-09-19T09:24:57;19.90;75.10
22787;DHT22;63134;52.020;4.714;2023-09-19T09:28:02;20.10;74.50
22787;DHT22;63134;52.020;4.714;2023-09-19T09:30:48;20.20;74.10
22787;DHT22;63134;52.020;4.714;2023-09-19T09:33:34;20.30;73.20
22787;DHT22;63134;52.020;4.714;2023-09-19T09:36:37;20.40;72.50
22787;DHT22;63134;52.020;4.714;2023-09-19T09:39:32;20.30;72.10
22787;DHT22;63134;52.020;4.714;2023-09-19T09:42:34;20.40;72.00
22787;DHT22;63134;52.020;4.714;2023-09-19T09:45:22;20.40;72.20
22787;DHT22;63134;52.020;4.714;2023-09-19T09:48:25;20.40;72.50
22787;DHT22;63134;52.020;4.714;2023-09-19T09:51:29;20.60;71.70
22787;DHT22;63134;52.020;4.714;2023-09-19T09:54:17;20.90;70.10
22787;DHT22;63134;52.020;4.714;2023-09-19T09:57:06;21.00;69.30
22787;DHT22;63134;52.020;4.714;2023-09-19T10:00:06;21.00;69.40
22787;DHT22;63134;52.020;4.714;2023-09-19T10:02:57;21.00;69.80
22787;DHT22;63134;52.020;4.714;2023-09-19T10:05:53;21.00;69.30
22787;DHT22;63134;52.020;4.714;2023-09-19T10:08:40;21.10;69.70
22787;DHT22;63134;52.020;4.714;2023-09-19T10:11:28;21.30;68.60
22787;DHT22;63134;52.020;4.714;2023-09-19T10:14:16;21.50;68.20
22787;DHT22;63134;52.020;4.714;2023-09-19T10:17:05;21.60;66.70
22787;DHT22;63134;52.020;4.714;2023-09-19T10:19:55;21.70;66.60
22787;DHT22;63134;52.020;4.714;2023-09-19T10:22:43;21.80;66.30
22787;DHT22;63134;52.020;4.714;2023-09-19T10:25:31;21.90;66.30
22787;DHT22;63134;52.020;4.714;2023-09-19T10:28:18;22.10;65.90
22787;DHT22;63134;52.020;4.714;2023-09-19T10:31:07;22.20;64.40
22787;DHT22;63134;52.020;4.714;2023-09-19T10:33:55;22.20;65.10
22787;DHT22;63134;52.020;4.714;2023-09-19T10:36:45;22.30;64.50
22787;DHT22;63134;52.020;4.714;2023-09-19T10:39:32;22.30;64.30
22787;DHT22;63134;52.020;4.714;2023-09-19T10:42:19;22.40;64.70
22787;DHT22;63134;52.020;4.714;2023-09-19T10:45:06;22.50;63.80
22787;DHT22;63134;52.020;4.714;2023-09-19T10:48:02;22.30;63.80
22787;DHT22;63134;52.020;4.714;2023-09-19T10:51:02;22.40;63.50
22787;DHT22;63134;52.020;4.714;2023-09-19T10:53:56;22.50;63.20
22787;DHT22;63134;52.020;4.714;2023-09-19T10:56:50;22.20;63.70
22787;DHT22;63134;52.020;4.714;2023-09-19T10:59:37;22.10;64.50
22787;DHT22;63134;52.020;4.714;2023-09-19T11:02:25;22.20;64.30
22787;DHT22;63134;52.020;4.714;2023-09-19T11:05:12;22.60;62.60
22787;DHT22;63134;52.020;4.714;2023-09-19T11:07:59;22.90;62.20
22787;DHT22;63134;52.020;4.714;2023-09-19T11:10:50;22.90;60.90
22787;DHT22;63134;52.020;4.714;2023-09-19T11:13:37;22.70;61.10
22787;DHT22;63134;52.020;4.714;2023-09-19T11:16:23;22.80;61.70
22787;DHT22;63134;52.020;4.714;2023-09-19T11:19:12;22.90;61.00
22787;DHT22;63134;52.020;4.714;2023-09-19T11:21:58;23.10;60.50
22787;DHT22;63134;52.020;4.714;2023-09-19T11:24:44;23.10;60.60
22787;DHT22;63134;52.020;4.714;2023-09-19T11:27:31;23.10;60.30
22787;DHT22;63134;52.020;4.714;2023-09-19T11:30:26;23.00;59.70
22787;DHT22;63134;52.020;4.714;2023-09-19T11:36:18;22.40;61.00
22787;DHT22;63134;52.020;4.714;2023-09-19T11:39:25;22.10;62.50
22787;DHT22;63134;52.020;4.714;2023-09-19T11:42:40;22.00;63.70
22787;DHT22;63134;52.020;4.714;2023-09-19T11:48:37;21.50;64.90
22787;DHT22;63134;52.020;4.714;2023-09-19T11:51:25;21.20;66.30
22787;DHT22;63134;52.020;4.714;2023-09-19T11:54:14;21.00;67.30
22787;DHT22;63134;52.020;4.714;2023-09-19T11:57:03;20.90;68.30
22787;DHT22;63134;52.020;4.714;2023-09-19T11:59:49;20.80;68.40
22787;DHT22;63134;52.020;4.714;2023-09-19T12:02:46;20.80;68.80
22787;DHT22;63134;52.020;4.714;2023-09-19T12:05:35;20.80;68.70
22787;DHT22;63134;52.020;4.714;2023-09-19T12:08:23;20.80;69.10
22787;DHT22;63134;52.020;4.714;2023-09-19T12:11:16;20.90;69.50
22787;DHT22;63134;52.020;4.714;2023-09-19T12:14:04;21.00;68.50
22787;DHT22;63134;52.020;4.714;2023-09-19T12:16:54;21.00;68.40
22787;DHT22;63134;52.020;4.714;2023-09-19T12:19:50;21.40;68.10
22787;DHT22;63134;52.020;4.714;2023-09-19T12:22:43;21.60;67.10
22787;DHT22;63134;52.020;4.714;2023-09-19T12:25:44;21.70;67.00
22787;DHT22;63134;52.020;4.714;2023-09-19T12:28:41;22.00;65.90
22787;DHT22;63134;52.020;4.714;2023-09-19T12:31:27;22.20;65.40
22787;DHT22;63134;52.020;4.714;2023-09-19T12:34:19;22.20;64.90
22787;DHT22;63134;52.020;4.714;2023-09-19T12:37:09;22.30;65.30
22787;DHT22;63134;52.020;4.714;2023-09-19T12:40:08;22.60;64.40
22787;DHT22;63134;52.020;4.714;2023-09-19T12:43:02;22.60;64.00
22787;DHT22;63134;52.020;4.714;2023-09-19T12:45:48;22.40;63.90
22787;DHT22;63134;52.020;4.714;2023-09-19T12:48:34;22.60;64.70
22787;DHT22;63134;52.020;4.714;2023-09-19T12:51:21;22.80;63.90
22787;DHT22;63134;52.020;4.714;2023-09-19T12:54:09;23.00;63.30
22787;DHT22;63134;52.020;4.714;2023-09-19T12:57:00;23.10;63.10
22787;DHT22;63134;52.020;4.714;2023-09-19T12:59:45;23.50;61.70
22787;DHT22;63134;52.020;4.714;2023-09-19T13:02:31;23.80;60.50
22787;DHT22;63134;52.020;4.714;2023-09-19T13:05:18;23.90;59.70
22787;DHT22;63134;52.020;4.714;2023-09-19T13:08:20;23.60;60.20
22787;DHT22;63134;52.020;4.714;2023-09-19T13:11:16;23.10;61.90
22787;DHT22;63134;52.020;4.714;2023-09-19T13:17:08;22.60;63.80
22787;DHT22;63134;52.020;4.714;2023-09-19T13:20:05;22.40;64.40
22787;DHT22;63134;52.020;4.714;2023-09-19T13:22:55;22.30;64.50
22787;DHT22;63134;52.020;4.714;2023-09-19T13:25:45;22.00;65.80
22787;DHT22;63134;52.020;4.714;2023-09-19T13:28:33;21.70;67.00
22787;DHT22;63134;52.020;4.714;2023-09-19T13:31:18;21.70;67.70
22787;DHT22;63134;52.020;4.714;2023-09-19T13:34:07;22.10;66.70
22787;DHT22;63134;52.020;4.714;2023-09-19T13:37:00;22.00;65.50
22787;DHT22;63134;52.020;4.714;2023-09-19T13:39:46;21.90;66.10
22787;DHT22;63134;52.020;4.714;2023-09-19T13:42:34;21.80;66.70
22787;DHT22;63134;52.020;4.714;2023-09-19T13:45:25;21.60;67.00
22787;DHT22;63134;52.020;4.714;2023-09-19T13:48:12;21.50;67.00
22787;DHT22;63134;52.020;4.714;2023-09-19T13:50:58;21.40;67.30
22787;DHT22;63134;52.020;4.714;2023-09-19T13:53:44;21.30;67.90
22787;DHT22;63134;52.020;4.714;2023-09-19T13:56:29;21.20;68.90
22787;DHT22;63134;52.020;4.714;2023-09-19T13:59:16;21.20;69.20
22787;DHT22;63134;52.020;4.714;2023-09-19T14:02:02;21.10;69.70
22787;DHT22;63134;52.020;4.714;2023-09-19T14:04:52;21.00;70.20
22787;DHT22;63134;52.020;4.714;2023-09-19T14:07:41;20.90;71.00
22787;DHT22;63134;52.020;4.714;2023-09-19T14:10:27;20.80;70.80
22787;DHT22;63134;52.020;4.714;2023-09-19T14:13:13;20.70;71.00
22787;DHT22;63134;52.020;4.714;2023-09-19T14:16:03;20.70;71.10
22787;DHT22;63134;52.020;4.714;2023-09-19T14:18:50;20.70;71.50
22787;DHT22;63134;52.020;4.714;2023-09-19T14:21:35;20.60;72.80
22787;DHT22;63134;52.020;4.714;2023-09-19T14:24:28;20.50;74.10
22787;DHT22;63134;52.020;4.714;2023-09-19T14:27:13;20.30;75.00
22787;DHT22;63134;52.020;4.714;2023-09-19T14:29:59;20.30;75.60
22787;DHT22;63134;52.020;4.714;2023-09-19T14:32:44;20.20;76.60
22787;DHT22;63134;52.020;4.714;2023-09-19T14:35:30;20.00;77.80
22787;DHT22;63134;52.020;4.714;2023-09-19T14:38:16;20.00;78.20
22787;DHT22;63134;52.020;4.714;2023-09-19T14:41:05;20.00;77.90
22787;DHT22;63134;52.020;4.714;2023-09-19T14:43:52;20.10;77.00
22787;DHT22;63134;52.020;4.714;2023-09-19T14:46:38;20.20;76.40
22787;DHT22;63134;52.020;4.714;2023-09-19T14:49:24;20.30;75.30
22787;DHT22;63134;52.020;4.714;2023-09-19T14:52:12;20.40;74.40
22787;DHT22;63134;52.020;4.714;2023-09-19T14:55:02;20.30;74.30
22787;DHT22;63134;52.020;4.714;2023-09-19T14:57:51;20.40;74.30
22787;DHT22;63134;52.020;4.714;2023-09-19T15:00:37;20.40;73.60
22787;DHT22;63134;52.020;4.714;2023-09-19T15:03:22;20.30;74.00
22787;DHT22;63134;52.020;4.714;2023-09-19T15:06:11;20.30;74.80
22787;DHT22;63134;52.020;4.714;2023-09-19T15:09:03;20.30;74.90
22787;DHT22;63134;52.020;4.714;2023-09-19T15:11:50;20.20;74.40
22787;DHT22;63134;52.020;4.714;2023-09-19T15:14:37;20.20;74.20
22787;DHT22;63134;52.020;4.714;2023-09-19T15:17:22;20.10;74.10
22787;DHT22;63134;52.020;4.714;2023-09-19T15:20:10;20.20;74.10
22787;DHT22;63134;52.020;4.714;2023-09-19T15:22:59;20.10;74.20
22787;DHT22;63134;52.020;4.714;2023-09-19T15:25:50;20.20;74.10
22787;DHT22;63134;52.020;4.714;2023-09-19T15:28:36;20.20;74.00
22787;DHT22;63134;52.020;4.714;2023-09-19T15:31:23;20.30;73.80
22787;DHT22;63134;52.020;4.714;2023-09-19T15:34:11;20.30;73.70
22787;DHT22;63134;52.020;4.714;2023-09-19T15:36:59;20.40;73.80
22787;DHT22;63134;52.020;4.714;2023-09-19T15:39:45;20.40;73.70
22787;DHT22;63134;52.020;4.714;2023-09-19T15:42:31;20.40;73.40
22787;DHT22;63134;52.020;4.714;2023-09-19T15:45:17;20.40;73.10
22787;DHT22;63134;52.020;4.714;2023-09-19T15:48:04;20.40;73.60
22787;DHT22;63134;52.020;4.714;2023-09-19T15:50:50;20.40;73.70
22787;DHT22;63134;52.020;4.714;2023-09-19T15:53:43;20.30;74.10
22787;DHT22;63134;52.020;4.714;2023-09-19T15:56:35;20.20;75.30
22787;DHT22;63134;52.020;4.714;2023-09-19T15:59:21;20.10;77.10
22787;DHT22;63134;52.020;4.714;2023-09-19T16:02:12;19.90;78.10
22787;DHT22;63134;52.020;4.714;2023-09-19T16:04:58;19.60;80.40
22787;DHT22;63134;52.020;4.714;2023-09-19T16:07:44;19.30;83.80
22787;DHT22;63134;52.020;4.714;2023-09-19T16:10:34;19.10;86.40
22787;DHT22;63134;52.020;4.714;2023-09-19T16:13:31;18.90;88.30
22787;DHT22;63134;52.020;4.714;2023-09-19T16:16:18;18.90;88.80
22787;DHT22;63134;52.020;4.714;2023-09-19T16:19:06;18.90;88.90
22787;DHT22;63134;52.020;4.714;2023-09-19T16:21:56;19.00;88.90
22787;DHT22;63134;52.020;4.714;2023-09-19T16:24:45;19.10;88.20
22787;DHT22;63134;52.020;4.714;2023-09-19T16:27:32;19.10;88.10
22787;DHT22;63134;52.020;4.714;2023-09-19T16:30:18;19.10;87.10
22787;DHT22;63134;52.020;4.714;2023-09-19T16:33:04;19.10;86.70
22787;DHT22;63134;52.020;4.714;2023-09-19T16:35:50;19.00;87.20
22787;DHT22;63134;52.020;4.714;2023-09-19T16:38:36;19.00;88.00
22787;DHT22;63134;52.020;4.714;2023-09-19T16:41:23;18.90;88.50
22787;DHT22;63134;52.020;4.714;2023-09-19T16:44:11;18.90;88.90
22787;DHT22;63134;52.020;4.714;2023-09-19T16:47:00;19.00;88.80
22787;DHT22;63134;52.020;4.714;2023-09-19T16:49:48;18.90;89.00
22787;DHT22;63134;52.020;4.714;2023-09-19T16:52:35;18.80;90.00
22787;DHT22;63134;52.020;4.714;2023-09-19T16:55:20;18.80;90.50
22787;DHT22;63134;52.020;4.714;2023-09-19T16:58:06;18.70;90.60
22787;DHT22;63134;52.020;4.714;2023-09-19T17:00:52;18.70;90.70
22787;DHT22;63134;52.020;4.714;2023-09-19T17:03:38;18.70;90.70
22787;DHT22;63134;52.020;4.714;2023-09-19T17:06:26;18.60;90.80
22787;DHT22;63134;52.020;4.714;2023-09-19T17:09:12;18.70;91.00
22787;DHT22;63134;52.020;4.714;2023-09-19T17:11:59;18.60;91.20
22787;DHT22;63134;52.020;4.714;2023-09-19T17:14:45;18.60;91.40
22787;DHT22;63134;52.020;4.714;2023-09-19T17:17:30;18.60;91.50
22787;DHT22;63134;52.020;4.714;2023-09-19T17:20:16;18.50;91.90
22787;DHT22;63134;52.020;4.714;2023-09-19T17:23:02;18.40;92.60
22787;DHT22;63134;52.020;4.714;2023-09-19T17:25:48;18.30;92.90
22787;DHT22;63134;52.020;4.714;2023-09-19T17:28:37;18.20;93.40
22787;DHT22;63134;52.020;4.714;2023-09-19T17:31:26;18.20;94.20
22787;DHT22;63134;52.020;4.714;2023-09-19T17:34:14;18.20;94.20
22787;DHT22;63134;52.020;4.714;2023-09-19T17:37:00;18.10;94.70
22787;DHT22;63134;52.020;4.714;2023-09-19T17:39:46;18.00;95.30
22787;DHT22;63134;52.020;4.714;2023-09-19T17:42:31;18.00;95.60
22787;DHT22;63134;52.020;4.714;2023-09-19T17:45:17;18.00;95.90
22787;DHT22;63134;52.020;4.714;2023-09-19T17:48:03;17.90;96.20
22787;DHT22;63134;52.020;4.714;2023-09-19T17:51:00;17.90;96.50
22787;DHT22;63134;52.020;4.714;2023-09-19T17:53:46;18.00;96.60
22787;DHT22;63134;52.020;4.714;2023-09-19T17:56:32;18.00;96.70
22787;DHT22;63134;52.020;4.714;2023-09-19T17:59:18;18.00;96.90
22787;DHT22;63134;52.020;4.714;2023-09-19T18:02:05;18.00;97.00
22787;DHT22;63134;52.020;4.714;2023-09-19T18:04:51;17.90;97.10
22787;DHT22;63134;52.020;4.714;2023-09-19T18:07:36;17.90;97.30
22787;DHT22;63134;52.020;4.714;2023-09-19T18:10:23;17.90;97.80
22787;DHT22;63134;52.020;4.714;2023-09-19T18:13:11;17.90;98.50